Terminal Aerodrome Forecast
Issued by NWS

Home | Current Version | Previous Version | Text Only | Print | Product List | Glossary On
Versions: 1 2 3 4 5 6 7 8 9 10 11 12 13 14 15 16 17 18 19 20 21 22 23 24 25 26 27 28
000
FTUS41 KBUF 012344 AAA
TAFJHW
TAF AMD
KJHW 012344Z 0200/0224 36005KT 1/2SM FG OVC002
     FM020200 VRB03KT 1/2SM -DZ FG OVC003
     FM020300 00000KT 1/2SM FG OVC003
     FM020500 00000KT 2SM BR VCSH OVC003
     FM021200 36008KT 6SM -SHRA OVC003
     FM021600 35007KT P6SM OVC003
     FM021900 35007KT P6SM BKN012
      AMD LTD TO CLD VIS AND WIND=

USA.gov is the U.S. government's official web portal to all federal, state and local government web resources and services.